createdAt,value
2017-05-24T00:00:37.469Z,70.36
2017-05-24T00:01:18.049Z,69.89
2017-05-24T00:01:58.639Z,69.89
2017-05-24T00:02:39.218Z,69.79
2017-05-24T00:03:19.801Z,69.79
2017-05-24T00:04:00.388Z,69.7
2017-05-24T00:04:40.973Z,69.41
2017-05-24T00:05:21.550Z,69.7
2017-05-24T00:06:02.130Z,69.7
2017-05-24T00:06:42.703Z,69.6
2017-05-24T00:07:23.282Z,69.31
2017-05-24T00:08:03.869Z,69.89
2017-05-24T00:08:44.471Z,70.65
2017-05-24T00:09:25.065Z,70.17
2017-05-24T00:10:05.693Z,70.56
2017-05-24T00:10:46.267Z,70.17
2017-05-24T00:11:26.840Z,70.07
2017-05-24T00:12:07.456Z,69.5
2017-05-24T00:12:48.024Z,69.41
2017-05-24T00:13:28.616Z,69.89
2017-05-24T00:14:09.193Z,69.5
2017-05-24T00:14:49.772Z,69.02
2017-05-24T00:15:30.363Z,69.21
2017-05-24T00:16:10.935Z,69.41
2017-05-24T00:16:51.523Z,69.21
2017-05-24T00:17:32.098Z,69.12
2017-05-24T00:18:12.701Z,69.41
2017-05-24T00:18:53.298Z,68.93
2017-05-24T00:19:33.911Z,68.93
2017-05-24T00:20:14.496Z,68.74
2017-05-24T00:20:55.106Z,68.35
2017-05-24T00:21:35.685Z,68.26
2017-05-24T00:22:16.311Z,68.93
2017-05-24T00:22:56.937Z,68.84
2017-05-24T00:23:37.515Z,69.12
2017-05-24T00:24:18.094Z,68.45
2017-05-24T00:24:58.681Z,68.35
2017-05-24T00:25:39.268Z,68.35
2017-05-24T00:26:19.870Z,68.84
2017-05-24T00:27:00.470Z,67.88
2017-05-24T00:27:41.048Z,67.88
2017-05-24T00:28:21.628Z,68.16
2017-05-24T00:29:02.197Z,67.88
2017-05-24T00:29:42.788Z,67.4
2017-05-24T00:30:23.372Z,67.3
2017-05-24T00:31:04.026Z,67.4
2017-05-24T00:31:44.579Z,67.4
2017-05-24T00:32:25.166Z,67.88
2017-05-24T00:33:05.744Z,67.69
2017-05-24T00:33:46.343Z,67.4
2017-05-24T00:34:26.935Z,67.49
2017-05-24T00:35:07.515Z,67.3
2017-05-24T00:35:48.091Z,67.21
2017-05-24T00:36:28.681Z,67.59
2017-05-24T00:37:09.258Z,67.4
2017-05-24T00:37:49.844Z,67.59
2017-05-24T00:38:30.434Z,67.59
2017-05-24T00:39:11.015Z,67.4
2017-05-24T00:39:51.611Z,67.4
2017-05-24T00:40:32.198Z,67.59
2017-05-24T00:41:12.790Z,68.07
2017-05-24T00:41:53.372Z,67.69
2017-05-24T00:42:33.958Z,67.4
2017-05-24T00:43:14.534Z,67.4
2017-05-24T00:43:55.122Z,67.59
2017-05-24T00:44:35.706Z,66.83
2017-05-24T00:45:16.282Z,67.11
2017-05-24T00:45:56.870Z,67.21
2017-05-24T00:46:37.451Z,66.92
2017-05-24T00:47:18.083Z,66.54
2017-05-24T00:47:58.679Z,66.5
2017-05-24T00:48:39.280Z,66.79
2017-05-24T00:49:19.857Z,66.99
2017-05-24T00:50:00.457Z,67.18
2017-05-24T00:50:41.031Z,67.4
2017-05-24T00:51:21.616Z,67.55
2017-05-24T00:52:02.223Z,67.36
2017-05-24T00:52:42.847Z,67.36
2017-05-24T00:53:23.437Z,67.27
2017-05-24T00:54:04.021Z,66.89
2017-05-24T00:54:44.599Z,66.89
2017-05-24T00:55:25.175Z,66.89
2017-05-24T00:56:05.770Z,66.89
2017-05-24T00:56:46.359Z,66.89
2017-05-24T00:57:26.941Z,66.89
2017-05-24T00:58:07.521Z,67.18
2017-05-24T00:58:48.112Z,67.08
2017-05-24T00:59:28.697Z,67.27
2017-05-24T01:00:09.281Z,67.55
2017-05-24T01:00:49.866Z,67.27
2017-05-24T01:01:30.456Z,67.55
2017-05-24T01:02:11.039Z,67.55
2017-05-24T01:02:51.618Z,67.65
2017-05-24T01:03:32.204Z,67.94
2017-05-24T01:04:12.777Z,67.55
2017-05-24T01:04:53.384Z,67.36
2017-05-24T01:05:33.981Z,67.65
2017-05-24T01:06:14.578Z,67.46
2017-05-24T01:06:55.164Z,67.65
2017-05-24T01:07:35.745Z,67.46
2017-05-24T01:08:16.328Z,67.36
2017-05-24T01:08:56.907Z,67.36
2017-05-24T01:09:37.489Z,67.46
2017-05-24T01:10:18.071Z,67.36
2017-05-24T01:10:58.653Z,67.75
2017-05-24T01:11:39.307Z,67.75
2017-05-24T01:12:19.879Z,67.46
2017-05-24T01:13:00.463Z,67.65
2017-05-24T01:13:41.048Z,67.65
2017-05-24T01:14:21.628Z,67.36
2017-05-24T01:15:02.205Z,67.65
2017-05-24T01:15:42.789Z,67.18
2017-05-24T01:16:23.364Z,67.27
2017-05-24T01:17:03.940Z,67.46
2017-05-24T01:17:44.537Z,67.65
2017-05-24T01:18:25.102Z,67.46
2017-05-24T01:19:05.687Z,67.65
2017-05-24T01:19:46.266Z,67.94
2017-05-24T01:20:26.847Z,67.75
2017-05-24T01:21:07.446Z,68.04
2017-05-24T01:21:48.042Z,67.75
2017-05-24T01:22:28.621Z,68.23
2017-05-24T01:23:09.218Z,67.65
2017-05-24T01:23:49.823Z,67.84
2017-05-24T01:24:30.394Z,68.13
2017-05-24T01:25:10.970Z,67.65
2017-05-24T01:25:51.558Z,68.04
2017-05-24T01:26:32.142Z,67.75
2017-05-24T01:27:12.743Z,68.04
2017-05-24T01:27:53.329Z,67.94
2017-05-24T01:28:33.995Z,68.13
2017-05-24T01:29:14.637Z,68.41
2017-05-24T01:29:55.217Z,69.18
2017-05-24T01:30:35.787Z,68.23
2017-05-24T01:31:16.385Z,68.23
2017-05-24T01:31:56.962Z,68.41
2017-05-24T01:32:37.540Z,68.13
2017-05-24T01:33:18.122Z,68.13
2017-05-24T01:33:58.734Z,67.36
2017-05-24T01:34:39.321Z,67.94
2017-05-24T01:35:19.897Z,67.84
2017-05-24T01:36:00.498Z,67.55
2017-05-24T01:36:41.175Z,67.55
2017-05-24T01:37:21.716Z,67.55
2017-05-24T01:38:02.305Z,67.75
2017-05-24T01:38:42.889Z,67.36
2017-05-24T01:39:23.475Z,67.65
2017-05-24T01:40:04.059Z,67.75
2017-05-24T01:40:44.643Z,67.65
2017-05-24T01:41:25.225Z,67.36
2017-05-24T01:42:05.813Z,67.46
2017-05-24T01:42:46.428Z,67.27
2017-05-24T01:43:27.009Z,67.27
2017-05-24T01:44:07.604Z,66.89
2017-05-24T01:44:48.183Z,67.18
2017-05-24T01:45:28.771Z,67.18
2017-05-24T01:46:09.351Z,67.36
2017-05-24T01:46:49.926Z,66.89
2017-05-24T01:47:30.499Z,66.31
2017-05-24T01:48:11.080Z,66.5
2017-05-24T01:48:51.660Z,66.22
2017-05-24T01:49:32.237Z,66.22
2017-05-24T01:50:12.808Z,66.22
2017-05-24T01:50:53.385Z,66.41
2017-05-24T01:51:33.981Z,66.31
2017-05-24T01:52:14.569Z,66.5
2017-05-24T01:52:55.149Z,65.84
2017-05-24T01:53:35.749Z,65.84
2017-05-24T01:54:16.329Z,66.13
2017-05-24T01:54:56.914Z,66.31
2017-05-24T01:55:37.504Z,66.22
2017-05-24T01:56:18.119Z,66.22
2017-05-24T01:56:58.719Z,65.64
2017-05-24T01:57:39.285Z,65.84
2017-05-24T01:58:19.859Z,65.93
2017-05-24T01:59:00.434Z,65.93
2017-05-24T01:59:41.020Z,65.84
2017-05-24T02:00:21.601Z,66.22
2017-05-24T02:01:02.242Z,65.93
2017-05-24T02:01:42.814Z,66.28
2017-05-24T02:02:23.409Z,66
2017-05-24T02:03:03.993Z,66.56
2017-05-24T02:03:44.571Z,66.47
2017-05-24T02:04:25.153Z,66.47
2017-05-24T02:05:05.728Z,66.66
2017-05-24T02:05:46.330Z,66.47
2017-05-24T02:06:26.921Z,66.56
2017-05-24T02:07:07.493Z,66.85
2017-05-24T02:07:48.094Z,66.47
2017-05-24T02:08:28.664Z,66.76
2017-05-24T02:09:09.239Z,66.47
2017-05-24T02:09:49.854Z,66.38
2017-05-24T02:10:30.436Z,66.56
2017-05-24T02:11:11.007Z,66.28
2017-05-24T02:11:51.594Z,66.38
2017-05-24T02:12:32.185Z,66.38
2017-05-24T02:13:12.760Z,66.56
2017-05-24T02:13:53.347Z,66.56
2017-05-24T02:14:33.936Z,66.56
2017-05-24T02:15:14.520Z,66.38
2017-05-24T02:15:55.084Z,66.76
2017-05-24T02:16:35.671Z,67.05
2017-05-24T02:17:16.254Z,67.05
2017-05-24T02:17:56.840Z,66.47
2017-05-24T02:18:37.418Z,66.56
2017-05-24T02:19:18.019Z,66.85
2017-05-24T02:19:58.633Z,67.14
2017-05-24T02:20:39.228Z,66.85
2017-05-24T02:21:19.808Z,66.85
2017-05-24T02:22:00.392Z,66.47
2017-05-24T02:22:40.968Z,66.56
2017-05-24T02:23:21.568Z,66.47
2017-05-24T02:24:02.141Z,66.47
2017-05-24T02:24:42.722Z,66.56
2017-05-24T02:25:23.310Z,66.47
2017-05-24T02:26:03.902Z,66.85
2017-05-24T02:26:44.482Z,66.76
2017-05-24T02:27:25.086Z,66
2017-05-24T02:28:05.669Z,66.38
2017-05-24T02:28:46.253Z,66.66
2017-05-24T02:29:26.837Z,66.56
2017-05-24T02:30:07.420Z,66.85
2017-05-24T02:30:48.002Z,66.66
2017-05-24T02:31:28.582Z,67.52
2017-05-24T02:32:09.175Z,67.14
2017-05-24T02:32:49.747Z,67.24
2017-05-24T02:33:30.365Z,67.14
2017-05-24T02:34:10.943Z,66.56
2017-05-24T02:34:51.582Z,66.85
2017-05-24T02:35:32.122Z,66.85
2017-05-24T02:36:12.693Z,66.56
2017-05-24T02:36:53.279Z,66.95
2017-05-24T02:37:33.878Z,66.85
2017-05-24T02:38:14.462Z,67.05
2017-05-24T02:38:55.036Z,66.85
2017-05-24T02:39:35.613Z,66.76
2017-05-24T02:40:16.193Z,66.85
2017-05-24T02:40:56.784Z,66.85
2017-05-24T02:41:37.396Z,67.24
2017-05-24T02:42:18.041Z,66.85
2017-05-24T02:42:58.621Z,67.14
2017-05-24T02:43:39.200Z,67.24
2017-05-24T02:44:19.779Z,67.43
2017-05-24T02:45:00.362Z,66.76
2017-05-24T02:45:40.941Z,66.85
2017-05-24T02:46:21.518Z,67.05
2017-05-24T02:47:02.088Z,66.85
2017-05-24T02:47:42.681Z,67.14
2017-05-24T02:48:23.292Z,67.52
2017-05-24T02:49:03.889Z,67.05
2017-05-24T02:49:44.474Z,66.89
2017-05-24T02:50:25.056Z,66.85
2017-05-24T02:51:05.627Z,67.14
2017-05-24T02:51:46.223Z,66.66
2017-05-24T02:52:26.819Z,66.85
2017-05-24T02:53:07.466Z,66.6
2017-05-24T02:53:48.091Z,66.38
2017-05-24T02:54:28.676Z,67.08
2017-05-24T02:55:09.252Z,67.14
2017-05-24T02:55:49.835Z,66.7
2017-05-24T02:56:30.413Z,67.08
2017-05-24T02:57:11.002Z,67.18
2017-05-24T02:57:51.589Z,66.89
2017-05-24T02:58:32.167Z,66.79
2017-05-24T02:59:12.753Z,66.79
2017-05-24T02:59:53.329Z,66.79
2017-05-24T03:00:33.909Z,66.31
2017-05-24T03:01:14.490Z,66.31
2017-05-24T03:01:55.071Z,66.47
2017-05-24T03:02:35.667Z,67.05
2017-05-24T03:03:16.242Z,66.85
2017-05-24T03:03:56.842Z,67.33
2017-05-24T03:04:37.422Z,67.14
2017-05-24T03:05:18.023Z,67.71
2017-05-24T03:05:58.613Z,67.52
2017-05-24T03:06:39.205Z,67.33
2017-05-24T03:07:19.804Z,67.24
2017-05-24T03:08:00.400Z,67.33
2017-05-24T03:08:40.984Z,67.43
2017-05-24T03:09:21.545Z,67.24
2017-05-24T03:10:02.140Z,67.14
2017-05-24T03:10:42.736Z,67.14
2017-05-24T03:11:23.325Z,66.66
2017-05-24T03:12:03.915Z,66.56
2017-05-24T03:12:44.491Z,66.47
2017-05-24T03:13:25.075Z,66.56
2017-05-24T03:14:05.675Z,67.05
2017-05-24T03:14:46.243Z,67.05
2017-05-24T03:15:26.823Z,66.76
2017-05-24T03:16:07.407Z,67.14
2017-05-24T03:16:47.997Z,66.66
2017-05-24T03:17:28.573Z,66.28
2017-05-24T03:18:09.154Z,66.56
2017-05-24T03:18:49.743Z,66.56
2017-05-24T03:19:30.336Z,66.56
2017-05-24T03:20:10.921Z,66.47
2017-05-24T03:20:51.509Z,66.56
2017-05-24T03:21:32.087Z,66.85
2017-05-24T03:22:12.661Z,66.85
2017-05-24T03:22:53.239Z,66
2017-05-24T03:23:33.855Z,66.09
2017-05-24T03:24:14.434Z,66.38
2017-05-24T03:24:55.127Z,66
2017-05-24T03:25:35.710Z,65.9
2017-05-24T03:26:16.297Z,66.28
2017-05-24T03:26:56.871Z,66.28
2017-05-24T03:27:37.449Z,66.47
2017-05-24T03:28:18.039Z,66.47
2017-05-24T03:28:58.634Z,66.56
2017-05-24T03:29:39.213Z,65.9
2017-05-24T03:30:19.808Z,66.47
2017-05-24T03:31:00.386Z,66.28
2017-05-24T03:31:40.997Z,66.38
2017-05-24T03:32:21.586Z,66.09
2017-05-24T03:33:02.171Z,66.09
2017-05-24T03:33:42.825Z,66.19
2017-05-24T03:34:23.430Z,65.61
2017-05-24T03:35:04.022Z,65.33
2017-05-24T03:35:44.617Z,65.52
2017-05-24T03:36:25.199Z,65.04
2017-05-24T03:37:05.783Z,65.42
2017-05-24T03:37:46.366Z,65.42
2017-05-24T03:38:26.958Z,65.61
2017-05-24T03:39:07.564Z,65.33
2017-05-24T03:39:48.134Z,65.9
2017-05-24T03:40:28.724Z,65.9
2017-05-24T03:41:09.329Z,66.19
2017-05-24T03:41:49.927Z,65.71
2017-05-24T03:42:30.515Z,65.8
2017-05-24T03:43:11.096Z,65.9
2017-05-24T03:43:51.695Z,65.45
2017-05-24T03:44:32.263Z,65.61
2017-05-24T03:45:12.886Z,65.33
2017-05-24T03:45:53.485Z,65.23
2017-05-24T03:46:34.059Z,65.14
2017-05-24T03:47:14.654Z,65.23
2017-05-24T03:47:55.234Z,65.42
2017-05-24T03:48:35.821Z,65.71
2017-05-24T03:49:16.441Z,65.64
2017-05-24T03:49:57.031Z,65.84
2017-05-24T03:50:37.617Z,65.93
2017-05-24T03:51:18.216Z,65.64
2017-05-24T03:51:58.787Z,66.22
2017-05-24T03:52:39.369Z,66.31
2017-05-24T03:53:19.969Z,65.84
2017-05-24T03:54:00.546Z,65.07
2017-05-24T03:54:41.116Z,65.07
2017-05-24T03:55:21.717Z,65.36
2017-05-24T03:56:02.312Z,64.78
2017-05-24T03:56:42.903Z,64.59
2017-05-24T03:57:23.586Z,64.69
2017-05-24T03:58:04.165Z,64.5
2017-05-24T03:58:44.742Z,64.69
2017-05-24T03:59:25.332Z,64.4
2017-05-24T04:00:05.945Z,64.31
2017-05-24T04:00:46.523Z,64.02
2017-05-24T04:01:27.112Z,64.31
2017-05-24T04:02:07.716Z,64.02
2017-05-24T04:02:48.319Z,64.31
2017-05-24T04:03:28.904Z,64.12
2017-05-24T04:04:09.484Z,64.31
2017-05-24T04:04:50.070Z,64.4
2017-05-24T04:05:30.650Z,64.02
2017-05-24T04:06:11.222Z,64.18
2017-05-24T04:06:51.811Z,63.99
2017-05-24T04:07:32.390Z,64.18
2017-05-24T04:08:12.993Z,64.22
2017-05-24T04:08:53.598Z,64.09
2017-05-24T04:09:34.189Z,64.28
2017-05-24T04:10:14.767Z,64.28
2017-05-24T04:10:55.374Z,64.18
2017-05-24T04:11:35.963Z,64.28
2017-05-24T04:12:16.541Z,64.18
2017-05-24T04:12:57.121Z,64.18
2017-05-24T04:13:37.700Z,64.22
2017-05-24T04:14:18.285Z,64.22
2017-05-24T04:14:58.861Z,64.18
2017-05-24T04:15:39.501Z,64.09
2017-05-24T04:16:20.074Z,64.65
2017-05-24T04:17:00.674Z,64.28
2017-05-24T04:17:41.271Z,64.28
2017-05-24T04:18:21.863Z,64.22
2017-05-24T04:19:02.448Z,64.31
2017-05-24T04:19:43.035Z,63.89
2017-05-24T04:20:23.614Z,63.7
2017-05-24T04:21:04.195Z,63.83
2017-05-24T04:21:44.782Z,63.8
2017-05-24T04:22:25.380Z,64.5
2017-05-24T04:23:05.973Z,64.02
2017-05-24T04:23:46.560Z,64.12
2017-05-24T04:24:27.141Z,64.12
2017-05-24T04:25:07.720Z,63.83
2017-05-24T04:25:48.305Z,63.83
2017-05-24T04:26:28.881Z,63.83
2017-05-24T04:27:09.474Z,62.87
2017-05-24T04:27:50.041Z,63.35
2017-05-24T04:28:30.628Z,62.87
2017-05-24T04:29:11.195Z,63.16
2017-05-24T04:29:51.792Z,62.97
2017-05-24T04:30:32.374Z,62.87
2017-05-24T04:31:13.007Z,63.35
2017-05-24T04:31:53.588Z,63.26
2017-05-24T04:32:34.165Z,63.35
2017-05-24T04:33:14.733Z,62.59
2017-05-24T04:33:55.375Z,62.21
2017-05-24T04:34:35.951Z,62.11
2017-05-24T04:35:16.521Z,62.11
2017-05-24T04:35:57.102Z,62.11
2017-05-24T04:36:37.676Z,62.4
2017-05-24T04:37:18.250Z,62.46
2017-05-24T04:37:58.837Z,62.4
2017-05-24T04:38:39.449Z,62.21
2017-05-24T04:39:20.030Z,61.54
2017-05-24T04:40:00.609Z,62.4
2017-05-24T04:40:41.193Z,62.01
2017-05-24T04:41:21.798Z,61.92
2017-05-24T04:42:02.402Z,62.21
2017-05-24T04:42:42.958Z,62.3
2017-05-24T04:43:23.691Z,62.3
2017-05-24T04:44:04.277Z,62.3
2017-05-24T04:44:44.850Z,62.21
2017-05-24T04:45:25.429Z,62.4
2017-05-24T04:46:06.012Z,61.63
2017-05-24T04:46:46.593Z,62.01
2017-05-24T04:47:27.165Z,61.35
2017-05-24T04:48:07.751Z,60.96
2017-05-24T04:48:48.326Z,60.93
2017-05-24T04:49:28.940Z,61.13
2017-05-24T04:50:09.513Z,61.13
2017-05-24T04:50:50.092Z,61.41
2017-05-24T04:51:30.693Z,61.32
2017-05-24T04:52:11.304Z,61.6
2017-05-24T04:52:51.883Z,61.32
2017-05-24T04:53:32.475Z,61.69
2017-05-24T04:54:13.065Z,61.6
2017-05-24T04:54:53.662Z,62.18
2017-05-24T04:55:34.244Z,61.51
2017-05-24T04:56:14.828Z,61.69
2017-05-24T04:56:55.403Z,61.69
2017-05-24T04:57:35.992Z,60.93
2017-05-24T04:58:16.567Z,61.51
2017-05-24T04:58:57.154Z,61.51
2017-05-24T04:59:37.744Z,61.51
2017-05-24T05:00:18.325Z,61.98
2017-05-24T05:00:58.902Z,61.69
2017-05-24T05:01:39.602Z,61.03
2017-05-24T05:02:20.189Z,61.13
2017-05-24T05:03:00.784Z,61.13
2017-05-24T05:03:41.357Z,61.03
2017-05-24T05:04:21.955Z,61.03
2017-05-24T05:05:02.531Z,61.13
2017-05-24T05:05:43.129Z,61.03
2017-05-24T05:06:23.725Z,61.32
2017-05-24T05:07:04.324Z,61.6
2017-05-24T05:07:44.896Z,62.18
2017-05-24T05:08:25.512Z,61.51
2017-05-24T05:09:06.097Z,61.98
2017-05-24T05:09:46.675Z,61.79
2017-05-24T05:10:27.252Z,61.13
2017-05-24T05:11:07.826Z,61.13
2017-05-24T05:11:48.403Z,61.79
2017-05-24T05:12:29.013Z,61.89
2017-05-24T05:13:09.582Z,61.6
2017-05-24T05:13:50.194Z,61.69
2017-05-24T05:14:30.856Z,61.98
2017-05-24T05:15:11.436Z,61.82
2017-05-24T05:15:52.016Z,61.54
2017-05-24T05:16:32.602Z,61.54
2017-05-24T05:17:13.184Z,61.54
2017-05-24T05:17:53.779Z,61.72
2017-05-24T05:18:34.361Z,62.01
2017-05-24T05:19:14.946Z,61.06
2017-05-24T05:19:55.529Z,61.25
2017-05-24T05:20:36.112Z,60.58
2017-05-24T05:21:16.692Z,61.16
2017-05-24T05:21:57.276Z,61.06
2017-05-24T05:22:37.865Z,61.06
2017-05-24T05:23:18.874Z,61.35
2017-05-24T05:24:01.318Z,60.77
2017-05-24T05:24:42.516Z,61.63
2017-05-24T05:25:23.852Z,61.35
2017-05-24T05:26:05.250Z,61.82
2017-05-24T05:26:46.568Z,61.54
2017-05-24T05:27:27.910Z,61.06
2017-05-24T05:28:09.169Z,61.13
2017-05-24T05:28:50.334Z,61.32
2017-05-24T05:29:31.679Z,61.6
2017-05-24T05:30:12.998Z,61.51
2017-05-24T05:30:54.281Z,61.98
2017-05-24T05:31:53.392Z,62.08
2017-05-24T05:32:37.796Z,63.32
2017-05-24T05:33:19.579Z,63.23
2017-05-24T05:34:00.855Z,63.03
2017-05-24T05:34:42.099Z,62.55
2017-05-24T05:35:23.495Z,62.27
2017-05-24T05:36:04.510Z,62.27
2017-05-24T05:36:46.413Z,62.75
2017-05-24T05:37:28.021Z,62.94
2017-05-24T05:38:09.740Z,63.7
2017-05-24T05:38:50.795Z,62.84
2017-05-24T05:39:32.109Z,63.13
2017-05-24T05:40:13.439Z,62.94
2017-05-24T05:40:54.645Z,62.75
2017-05-24T05:41:36.065Z,62.46
2017-05-24T05:42:17.254Z,63.13
2017-05-24T05:42:59.135Z,64.18
2017-05-24T05:43:40.466Z,64.28
2017-05-24T05:44:21.607Z,63.89
2017-05-24T05:45:02.981Z,63.26
2017-05-24T05:45:44.159Z,63.07
2017-05-24T05:46:24.767Z,63.26
2017-05-24T05:47:05.374Z,63.26
2017-05-24T05:47:45.938Z,62.97
2017-05-24T05:48:26.517Z,62.97
2017-05-24T05:49:07.105Z,64.31
2017-05-24T05:49:47.692Z,64.69
2017-05-24T05:50:28.272Z,64.69
2017-05-24T05:51:08.870Z,63.26
2017-05-24T05:51:49.467Z,62.21
2017-05-24T05:52:30.050Z,61.72
2017-05-24T05:53:10.647Z,61.06
2017-05-24T05:53:51.227Z,61.16
2017-05-24T05:54:31.805Z,61.63
2017-05-24T05:55:12.391Z,61.72
2017-05-24T05:55:52.982Z,61.35
2017-05-24T05:56:33.572Z,61.82
2017-05-24T05:57:14.185Z,62.21
2017-05-24T05:57:54.768Z,63.16
2017-05-24T05:58:35.364Z,62.4
2017-05-24T05:59:16.007Z,62.21
2017-05-24T05:59:56.593Z,62.3
2017-05-24T06:00:37.219Z,62.21
2017-05-24T06:01:17.786Z,62.49
2017-05-24T06:01:58.755Z,62.59
2017-05-24T06:02:39.934Z,62.21
2017-05-24T06:03:21.286Z,62.21
2017-05-24T06:04:02.696Z,62.11
2017-05-24T06:04:44.011Z,62.4
2017-05-24T06:05:25.222Z,62.49
2017-05-24T06:06:06.526Z,62.78
2017-05-24T06:06:47.912Z,62.68
2017-05-24T06:07:29.172Z,61.92
2017-05-24T06:08:10.349Z,62.37
2017-05-24T06:08:51.819Z,62.27
2017-05-24T06:09:33.162Z,62.97
2017-05-24T06:10:14.515Z,62.4
2017-05-24T06:10:55.892Z,62.4
2017-05-24T06:11:37.417Z,62.59
2017-05-24T06:12:18.828Z,62.49
2017-05-24T06:13:00.140Z,62.27
2017-05-24T06:13:41.547Z,62.18
2017-05-24T06:14:22.873Z,62.55
2017-05-24T06:15:04.221Z,62.27
2017-05-24T06:15:45.619Z,62.46
2017-05-24T06:16:26.945Z,62.68
2017-05-24T06:17:08.271Z,62.3
2017-05-24T06:17:49.481Z,62.49
2017-05-24T06:18:30.851Z,62.59
2017-05-24T06:19:12.223Z,62.11
2017-05-24T06:19:53.566Z,61.92
2017-05-24T06:20:34.795Z,61.82
2017-05-24T06:21:16.027Z,62.4
2017-05-24T06:21:56.767Z,62.68
2017-05-24T06:22:37.423Z,62.59
2017-05-24T06:23:18.013Z,63.35
2017-05-24T06:23:58.609Z,63.07
2017-05-24T06:24:39.199Z,63.26
2017-05-24T06:25:19.827Z,62.3
2017-05-24T06:26:00.478Z,62.3
2017-05-24T06:26:41.081Z,61.63
2017-05-24T06:27:21.777Z,61.54
2017-05-24T06:28:02.367Z,61.54
2017-05-24T06:28:42.955Z,62.01
2017-05-24T06:29:23.554Z,61.16
2017-05-24T06:30:04.133Z,60.49
2017-05-24T06:30:44.731Z,60.49
2017-05-24T06:31:25.336Z,60.39
2017-05-24T06:32:05.940Z,60.49
2017-05-24T06:32:46.547Z,60.3
2017-05-24T06:33:27.158Z,60.49
2017-05-24T06:34:07.734Z,60.96
2017-05-24T06:34:48.339Z,61.06
2017-05-24T06:35:28.945Z,61.44
2017-05-24T06:36:09.541Z,61.06
2017-05-24T06:36:50.134Z,60.96
2017-05-24T06:37:30.723Z,61.51
2017-05-24T06:38:11.328Z,61.6
2017-05-24T06:38:51.984Z,61.69
2017-05-24T06:39:32.516Z,62.27
2017-05-24T06:40:13.121Z,62.18
2017-05-24T06:40:53.688Z,62.37
2017-05-24T06:41:34.285Z,62.68
2017-05-24T06:42:14.876Z,62.4
2017-05-24T06:42:55.470Z,62.59
2017-05-24T06:43:36.066Z,62.11
2017-05-24T06:44:16.702Z,61.92
2017-05-24T06:44:57.287Z,62.01
2017-05-24T06:45:37.880Z,62.01
2017-05-24T06:46:18.473Z,62.21
2017-05-24T06:46:59.048Z,62.11
2017-05-24T06:47:39.625Z,62.01
2017-05-24T06:48:20.213Z,61.22
2017-05-24T06:49:00.794Z,60.96
2017-05-24T06:49:41.390Z,61.69
2017-05-24T06:50:21.971Z,61.79
2017-05-24T06:51:02.565Z,61.69
2017-05-24T06:51:43.151Z,61.41
2017-05-24T06:52:23.764Z,62.18
2017-05-24T06:53:04.348Z,61.98
2017-05-24T06:53:44.945Z,61.89
2017-05-24T06:54:25.516Z,62.18
2017-05-24T06:55:06.114Z,63.03
2017-05-24T06:55:46.697Z,62.08
2017-05-24T06:56:27.278Z,61.98
2017-05-24T06:57:07.892Z,61.69
2017-05-24T06:57:48.471Z,61.13
2017-05-24T06:58:29.074Z,61.03
2017-05-24T06:59:09.661Z,60.84
2017-05-24T06:59:50.355Z,61.13
2017-05-24T07:00:30.934Z,61.32
2017-05-24T07:01:11.529Z,61.41
2017-05-24T07:01:52.113Z,60.93
2017-05-24T07:02:32.732Z,61.6
2017-05-24T07:03:13.327Z,62.18
2017-05-24T07:03:53.914Z,62.27
2017-05-24T07:04:34.515Z,62.59
2017-05-24T07:05:15.098Z,62.59
2017-05-24T07:05:55.680Z,61.82
2017-05-24T07:06:36.253Z,61.06
2017-05-24T07:07:16.872Z,60.58
2017-05-24T07:07:57.464Z,60.01
2017-05-24T07:08:38.058Z,60.1
2017-05-24T07:09:18.662Z,59.53
2017-05-24T07:09:59.254Z,59.53
2017-05-24T07:10:39.846Z,59.18
2017-05-24T07:11:20.437Z,58.7
2017-05-24T07:12:01.015Z,59.27
2017-05-24T07:12:41.598Z,59.47
2017-05-24T07:13:22.194Z,58.7
2017-05-24T07:14:02.807Z,58.61
2017-05-24T07:14:43.416Z,58.89
2017-05-24T07:15:24.025Z,58.22
2017-05-24T07:16:04.619Z,57.26
2017-05-24T07:16:45.243Z,57.36
2017-05-24T07:17:25.824Z,57.55
2017-05-24T07:18:06.410Z,57.84
2017-05-24T07:18:46.987Z,57.65
2017-05-24T07:19:27.576Z,58.12
2017-05-24T07:20:08.191Z,58.12
2017-05-24T07:20:48.783Z,58.12
2017-05-24T07:21:29.376Z,58.03
2017-05-24T07:22:09.952Z,57.93
2017-05-24T07:22:50.550Z,58.32
2017-05-24T07:23:31.145Z,57.75
2017-05-24T07:24:11.733Z,58.51
2017-05-24T07:24:52.317Z,57.75
2017-05-24T07:25:32.886Z,57.46
2017-05-24T07:26:13.495Z,57.07
2017-05-24T07:26:54.075Z,57.17
2017-05-24T07:27:34.687Z,57.26
2017-05-24T07:28:15.294Z,57.55
2017-05-24T07:28:55.889Z,57.65
2017-05-24T07:29:36.475Z,57.75
2017-05-24T07:30:17.055Z,57.93
2017-05-24T07:30:57.655Z,57.93
2017-05-24T07:31:38.271Z,57.93
2017-05-24T07:32:18.855Z,57.84
2017-05-24T07:32:59.442Z,57.65
2017-05-24T07:33:40.034Z,58.12
2017-05-24T07:34:20.633Z,57.84
2017-05-24T07:35:01.219Z,58.41
2017-05-24T07:35:41.798Z,59.27
2017-05-24T07:36:22.379Z,58.25
2017-05-24T07:37:02.979Z,58.25
2017-05-24T07:37:43.596Z,58.06
2017-05-24T07:38:24.477Z,58.25
2017-05-24T07:39:05.078Z,57.1
2017-05-24T07:39:45.660Z,57.48
2017-05-24T07:40:26.249Z,57.68
2017-05-24T07:41:06.831Z,57.68
2017-05-24T07:41:47.447Z,57.29
2017-05-24T07:42:28.054Z,57.77
2017-05-24T07:43:08.661Z,58.06
2017-05-24T07:43:49.254Z,58.44
2017-05-24T07:44:29.864Z,58.44
2017-05-24T07:45:10.515Z,57.68
2017-05-24T07:45:51.056Z,57.87
2017-05-24T07:46:31.678Z,57.51
2017-05-24T07:47:12.281Z,57.32
2017-05-24T07:47:52.870Z,57.61
2017-05-24T07:48:33.468Z,57.8
2017-05-24T07:49:14.072Z,58.09
2017-05-24T07:49:54.647Z,57.68
2017-05-24T07:50:35.261Z,57.23
2017-05-24T07:51:15.868Z,57.01
2017-05-24T07:51:56.475Z,57.29
2017-05-24T07:52:37.086Z,57.7
2017-05-24T07:53:17.668Z,57.68
2017-05-24T07:54:07.139Z,58.44
2017-05-24T07:54:48.405Z,58.54
2017-05-24T07:55:49.015Z,58.34
2017-05-24T07:56:30.455Z,57.97
2017-05-24T07:57:11.075Z,58.54
2017-05-24T07:57:51.663Z,58.54
2017-05-24T07:58:32.289Z,58.25
2017-05-24T07:59:12.878Z,58.54
2017-05-24T07:59:53.463Z,58.54
2017-05-24T08:00:34.102Z,58.25
2017-05-24T08:01:15.029Z,58.06
2017-05-24T08:02:03.855Z,58.83
2017-05-24T08:02:46.093Z,59.01
2017-05-24T08:03:30.692Z,59.01
2017-05-24T08:04:11.327Z,59.59
2017-05-24T08:04:51.929Z,59.11
2017-05-24T08:05:32.518Z,58.25
2017-05-24T08:06:13.132Z,58.25
2017-05-24T08:06:53.721Z,57.87
2017-05-24T08:07:35.147Z,58.15
2017-05-24T08:08:16.804Z,57.68
2017-05-24T08:08:57.399Z,58.25
2017-05-24T08:09:46.037Z,58.61
2017-05-24T08:10:40.935Z,58.61
2017-05-24T08:11:21.553Z,58.8
2017-05-24T08:12:03.310Z,59.37
2017-05-24T08:12:45.074Z,59.08
2017-05-24T08:13:25.633Z,59.37
2017-05-24T08:14:06.205Z,59.75
2017-05-24T08:14:46.817Z,60.23
2017-05-24T08:15:27.393Z,60.04
2017-05-24T08:16:07.994Z,60.23
2017-05-24T08:16:48.624Z,60.8
2017-05-24T08:17:29.232Z,60.42
2017-05-24T08:18:09.815Z,60.23
2017-05-24T08:18:50.417Z,59.84
2017-05-24T08:19:30.996Z,59.37
2017-05-24T08:20:11.581Z,59.94
2017-05-24T08:20:52.164Z,59.94
2017-05-24T08:21:32.738Z,60.13
2017-05-24T08:22:13.321Z,60.42
2017-05-24T08:22:53.914Z,60.9
2017-05-24T08:23:34.507Z,60.9
2017-05-24T08:24:15.126Z,61.12
2017-05-24T08:24:55.692Z,61.22
2017-05-24T08:25:36.282Z,60.45
2017-05-24T08:26:16.860Z,60.64
2017-05-24T08:26:57.441Z,60.26
2017-05-24T08:27:38.017Z,60.35
2017-05-24T08:28:18.637Z,59.4
2017-05-24T08:28:59.223Z,59.69
2017-05-24T08:29:39.841Z,59.49
2017-05-24T08:30:20.438Z,59.78
2017-05-24T08:31:01.094Z,59.59
2017-05-24T08:31:42.354Z,59.4
2017-05-24T08:32:24.220Z,59.01
2017-05-24T08:33:06.859Z,59.2
2017-05-24T08:33:48.115Z,59.11
2017-05-24T08:34:28.718Z,59.49
2017-05-24T08:35:09.369Z,59.78
2017-05-24T08:35:49.960Z,60.26
2017-05-24T08:36:30.531Z,60.35
2017-05-24T08:37:11.108Z,59.88
2017-05-24T08:37:55.223Z,59.49
2017-05-24T08:38:35.816Z,59.49
2017-05-24T08:39:16.406Z,59.88
2017-05-24T08:39:56.990Z,59.56
2017-05-24T08:40:37.572Z,60.23
2017-05-24T08:41:18.159Z,60.33
2017-05-24T08:41:58.736Z,60.9
2017-05-24T08:42:39.323Z,60.8
2017-05-24T08:43:19.917Z,60.71
2017-05-24T08:44:00.500Z,60.52
2017-05-24T08:44:41.095Z,60.42
2017-05-24T08:45:21.678Z,60.71
2017-05-24T08:46:02.288Z,60.52
2017-05-24T08:46:42.883Z,61.19
2017-05-24T08:47:23.505Z,61.76